ME2 weather

Cutler Regional Airport
Cutler, Maine, United States

Public forecast

Using degrees Fahrenheit for public forecast. Weather courtesy of forecast.io.

METAR (pilot weather report)

Closest report is Hancock County-Bar Harbor Airport, 48.9 nm (90.6 km) WSW. Retrieved 2019/08/23 09:56 UTC (5 minutes ago):

KBHB 230956Z AUTO 00000KT 10SM CLR 16/15 A2986 RMK AO2 SLP111 T01560150

TAF (pilot weather forecast)

Closest forecast is Hancock County-Bar Harbor Airport, 48.9 nm (90.6 km) WSW. Retrieved 2019/08/23 06:39 UTC (3 hours ago):

TAF KBHB 230537Z 2306/2406 VRB03KT P6SM BKN070 TEMPO 2308/2310 4SM BR FM231100 28005KT P6SM SCT070 FM231700 28010KT P6SM SCT100 FM240400 31005KT P6SM SKC